SUR4015 SAAR-SADF
Flight info
| Callsign | SUR4015 |
|---|---|
| Flight time | 0h 52m |
| Altitude | 130 |
| Route | VASAL W20 MULTA W24 SNT |
| Aircraft | B350/M-SDE3L/L |
Departure
| Time | 2026-04-22 20:56 |
|---|---|
| Airport | Rosario Islas Malvinas International Airport (SAAR) |
Arrival
| Time | 2026-04-22 21:49 |
|---|---|
| Airport | San Fernando Airport (SADF) |
| Time | Latitude | Longitude | Altitude | Speed | Heading |
|---|---|---|---|---|---|
| 2026-04-22 20:37 | -32.91968 | -60.78159 | 90 ft | 0 kts | 101° |
| 2026-04-22 20:42 | -32.91968 | -60.78158 | 90 ft | 0 kts | 101° |
| 2026-04-22 20:48 | -32.91967 | -60.78165 | 90 ft | 2 kts | 101° |
| 2026-04-22 20:48 | -32.91963 | -60.78184 | 90 ft | 3 kts | 101° |
| 2026-04-22 20:48 | -32.91960 | -60.78207 | 90 ft | 3 kts | 101° |
| 2026-04-22 20:48 | -32.91956 | -60.78231 | 90 ft | 3 kts | 101° |
| 2026-04-22 20:49 | -32.91952 | -60.78255 | 90 ft | 3 kts | 101° |
| 2026-04-22 20:49 | -32.91948 | -60.78278 | 90 ft | 1 kts | 104° |
| 2026-04-22 20:49 | -32.91946 | -60.78267 | 90 ft | 0 kts | 49° |
| 2026-04-22 20:49 | -32.91941 | -60.78263 | 90 ft | 7 kts | 22° |
| 2026-04-22 20:50 | -32.91924 | -60.78273 | 90 ft | 2 kts | 311° |
| 2026-04-22 20:50 | -32.91918 | -60.78281 | 90 ft | 1 kts | 311° |
| 2026-04-22 20:50 | -32.91892 | -60.78320 | 90 ft | 6 kts | 308° |
| 2026-04-22 20:50 | -32.91863 | -60.78364 | 90 ft | 7 kts | 308° |
| 2026-04-22 20:51 | -32.91829 | -60.78413 | 90 ft | 8 kts | 309° |
| 2026-04-22 20:51 | -32.91796 | -60.78465 | 90 ft | 8 kts | 305° |
| 2026-04-22 20:51 | -32.91770 | -60.78524 | 90 ft | 8 kts | 286° |
| 2026-04-22 20:51 | -32.91755 | -60.78587 | 90 ft | 8 kts | 289° |
| 2026-04-22 20:52 | -32.91726 | -60.78640 | 90 ft | 8 kts | 313° |
| 2026-04-22 20:52 | -32.91680 | -60.78679 | 90 ft | 9 kts | 338° |
| 2026-04-22 20:52 | -32.91621 | -60.78704 | 90 ft | 9 kts | 336° |
| 2026-04-22 20:52 | -32.91556 | -60.78726 | 90 ft | 10 kts | 2° |
| 2026-04-22 20:53 | -32.91486 | -60.78711 | 90 ft | 10 kts | 11° |
| 2026-04-22 20:53 | -32.91412 | -60.78695 | 90 ft | 11 kts | 9° |
| 2026-04-22 20:53 | -32.91332 | -60.78676 | 90 ft | 12 kts | 10° |
| 2026-04-22 20:53 | -32.91246 | -60.78657 | 90 ft | 13 kts | 10° |
| 2026-04-22 20:54 | -32.91154 | -60.78637 | 90 ft | 14 kts | 14° |
| 2026-04-22 20:54 | -32.91061 | -60.78609 | 90 ft | 14 kts | 12° |
| 2026-04-22 20:54 | -32.90967 | -60.78573 | 90 ft | 14 kts | 26° |
| 2026-04-22 20:54 | -32.90914 | -60.78548 | 90 ft | 6 kts | 352° |
| 2026-04-22 20:55 | -32.90904 | -60.78574 | 90 ft | 5 kts | 200° |
| 2026-04-22 20:55 | -32.90910 | -60.78576 | 90 ft | 1 kts | 193° |
| 2026-04-22 20:55 | -32.90990 | -60.78592 | 90 ft | 42 kts | 189° |
| 2026-04-22 20:55 | -32.91466 | -60.78697 | 90 ft | 95 kts | 190° |
| 2026-04-22 20:56 | -32.92125 | -60.78832 | 360 ft | 98 kts | 186° |
| 2026-04-22 20:56 | -32.92979 | -60.78915 | 312 ft | 153 kts | 181° |
| 2026-04-22 20:56 | -32.94100 | -60.78906 | 597 ft | 160 kts | 177° |
| 2026-04-22 20:56 | -32.95128 | -60.78800 | 1381 ft | 138 kts | 175° |
| 2026-04-22 20:57 | -32.96051 | -60.78688 | 1974 ft | 135 kts | 176° |
| 2026-04-22 20:57 | -32.97046 | -60.78561 | 2210 ft | 151 kts | 174° |
| 2026-04-22 20:57 | -32.98123 | -60.78598 | 2425 ft | 162 kts | 199° |
| 2026-04-22 20:57 | -32.98994 | -60.79484 | 2649 ft | 172 kts | 232° |
| 2026-04-22 20:58 | -32.99820 | -60.80529 | 2856 ft | 177 kts | 207° |
| 2026-04-22 20:58 | -33.00998 | -60.80894 | 3066 ft | 181 kts | 179° |
| 2026-04-22 20:58 | -33.02209 | -60.80431 | 3278 ft | 188 kts | 154° |
| 2026-04-22 20:58 | -33.03312 | -60.79547 | 3482 ft | 194 kts | 145° |
| 2026-04-22 20:59 | -33.04362 | -60.78522 | 3747 ft | 195 kts | 142° |
| 2026-04-22 20:59 | -33.05382 | -60.77463 | 4043 ft | 195 kts | 141° |
| 2026-04-22 20:59 | -33.06399 | -60.76393 | 4340 ft | 195 kts | 141° |
| 2026-04-22 20:59 | -33.07421 | -60.75320 | 4638 ft | 196 kts | 140° |
| 2026-04-22 21:00 | -33.08447 | -60.74251 | 4937 ft | 197 kts | 140° |
| 2026-04-22 21:00 | -33.09482 | -60.73181 | 5237 ft | 197 kts | 139° |
| 2026-04-22 21:00 | -33.10523 | -60.72108 | 5536 ft | 198 kts | 139° |
| 2026-04-22 21:00 | -33.11570 | -60.71029 | 5835 ft | 199 kts | 139° |
| 2026-04-22 21:01 | -33.12622 | -60.69947 | 6132 ft | 200 kts | 140° |
| 2026-04-22 21:01 | -33.13665 | -60.68873 | 6428 ft | 201 kts | 140° |
| 2026-04-22 21:01 | -33.14730 | -60.67778 | 6728 ft | 202 kts | 140° |
| 2026-04-22 21:01 | -33.15798 | -60.66678 | 7028 ft | 203 kts | 139° |
| 2026-04-22 21:02 | -33.16870 | -60.65576 | 7327 ft | 204 kts | 139° |
| 2026-04-22 21:02 | -33.17950 | -60.64464 | 7627 ft | 205 kts | 139° |
| 2026-04-22 21:02 | -33.19040 | -60.63341 | 7849 ft | 211 kts | 139° |
| 2026-04-22 21:02 | -33.20180 | -60.62167 | 7961 ft | 221 kts | 139° |
| 2026-04-22 21:03 | -33.21377 | -60.60934 | 7990 ft | 233 kts | 139° |
| 2026-04-22 21:03 | -33.22616 | -60.59657 | 7994 ft | 242 kts | 140° |
| 2026-04-22 21:03 | -33.23916 | -60.58317 | 7988 ft | 250 kts | 140° |
| 2026-04-22 21:03 | -33.25245 | -60.56948 | 7989 ft | 255 kts | 140° |
| 2026-04-22 21:04 | -33.26594 | -60.55556 | 7988 ft | 258 kts | 140° |
| 2026-04-22 21:04 | -33.27964 | -60.54143 | 7987 ft | 261 kts | 140° |
| 2026-04-22 21:04 | -33.29343 | -60.52719 | 7986 ft | 263 kts | 140° |
| 2026-04-22 21:04 | -33.30732 | -60.51284 | 7986 ft | 264 kts | 140° |
| 2026-04-22 21:05 | -33.32089 | -60.49801 | 7986 ft | 265 kts | 135° |
| 2026-04-22 21:05 | -33.33328 | -60.48154 | 7986 ft | 266 kts | 130° |
| 2026-04-22 21:05 | -33.34475 | -60.46455 | 7986 ft | 267 kts | 128° |
| 2026-04-22 21:05 | -33.35601 | -60.44689 | 7983 ft | 267 kts | 127° |
| 2026-04-22 21:06 | -33.36708 | -60.42900 | 7982 ft | 267 kts | 127° |
| 2026-04-22 21:06 | -33.37800 | -60.41103 | 7981 ft | 267 kts | 126° |
| 2026-04-22 21:06 | -33.38885 | -60.39296 | 7980 ft | 267 kts | 126° |
| 2026-04-22 21:06 | -33.39964 | -60.37485 | 7980 ft | 267 kts | 126° |
| 2026-04-22 21:07 | -33.41039 | -60.35670 | 7978 ft | 267 kts | 126° |
| 2026-04-22 21:07 | -33.42112 | -60.33853 | 7978 ft | 267 kts | 126° |
| 2026-04-22 21:07 | -33.43185 | -60.32031 | 7979 ft | 267 kts | 126° |
| 2026-04-22 21:07 | -33.44255 | -60.30210 | 7979 ft | 267 kts | 126° |
| 2026-04-22 21:08 | -33.45322 | -60.28392 | 7979 ft | 267 kts | 126° |
| 2026-04-22 21:08 | -33.46387 | -60.26573 | 7980 ft | 267 kts | 126° |
| 2026-04-22 21:08 | -33.47455 | -60.24748 | 7981 ft | 267 kts | 125° |
| 2026-04-22 21:08 | -33.48509 | -60.22945 | 7984 ft | 267 kts | 124° |
| 2026-04-22 21:09 | -33.49576 | -60.21118 | 7985 ft | 268 kts | 125° |
| 2026-04-22 21:09 | -33.50644 | -60.19289 | 7987 ft | 268 kts | 124° |
| 2026-04-22 21:09 | -33.51712 | -60.17457 | 7989 ft | 268 kts | 124° |
| 2026-04-22 21:09 | -33.52780 | -60.15624 | 7990 ft | 268 kts | 124° |
| 2026-04-22 21:10 | -33.53850 | -60.13786 | 7990 ft | 268 kts | 124° |
| 2026-04-22 21:10 | -33.54919 | -60.11949 | 7989 ft | 269 kts | 124° |
| 2026-04-22 21:10 | -33.55989 | -60.10111 | 7992 ft | 269 kts | 124° |
| 2026-04-22 21:10 | -33.57057 | -60.08275 | 7993 ft | 269 kts | 124° |
| 2026-04-22 21:11 | -33.58122 | -60.06439 | 7986 ft | 269 kts | 126° |
| 2026-04-22 21:11 | -33.59176 | -60.04622 | 7978 ft | 268 kts | 126° |
| 2026-04-22 21:11 | -33.60241 | -60.02787 | 7974 ft | 268 kts | 126° |
| 2026-04-22 21:11 | -33.61304 | -60.00955 | 7971 ft | 267 kts | 127° |
| 2026-04-22 21:12 | -33.62360 | -59.99132 | 7969 ft | 265 kts | 128° |
| 2026-04-22 21:12 | -33.63405 | -59.97328 | 7951 ft | 262 kts | 128° |
| 2026-04-22 21:12 | -33.64442 | -59.95539 | 7948 ft | 260 kts | 128° |
| 2026-04-22 21:12 | -33.65471 | -59.93762 | 7949 ft | 258 kts | 128° |
| 2026-04-22 21:13 | -33.66495 | -59.91995 | 7950 ft | 258 kts | 128° |
| 2026-04-22 21:13 | -33.67517 | -59.90230 | 7952 ft | 257 kts | 128° |
| 2026-04-22 21:13 | -33.68536 | -59.88469 | 7953 ft | 257 kts | 128° |
| 2026-04-22 21:13 | -33.69554 | -59.86708 | 7954 ft | 257 kts | 128° |
| 2026-04-22 21:14 | -33.70574 | -59.84944 | 7954 ft | 257 kts | 128° |
| 2026-04-22 21:14 | -33.71592 | -59.83181 | 7955 ft | 257 kts | 128° |
| 2026-04-22 21:14 | -33.72610 | -59.81417 | 7955 ft | 257 kts | 128° |
| 2026-04-22 21:14 | -33.73630 | -59.79650 | 7956 ft | 257 kts | 128° |
| 2026-04-22 21:15 | -33.74638 | -59.77902 | 7956 ft | 257 kts | 128° |
| 2026-04-22 21:15 | -33.75654 | -59.76138 | 7952 ft | 255 kts | 126° |
| 2026-04-22 21:15 | -33.76653 | -59.74403 | 7911 ft | 250 kts | 126° |
| 2026-04-22 21:15 | -33.77637 | -59.72693 | 7903 ft | 246 kts | 127° |
| 2026-04-22 21:16 | -33.78602 | -59.71011 | 7900 ft | 243 kts | 127° |
| 2026-04-22 21:16 | -33.79558 | -59.69348 | 7903 ft | 241 kts | 127° |
| 2026-04-22 21:16 | -33.80511 | -59.67695 | 7903 ft | 239 kts | 127° |
| 2026-04-22 21:16 | -33.81453 | -59.66054 | 7905 ft | 238 kts | 127° |
| 2026-04-22 21:17 | -33.82394 | -59.64417 | 7905 ft | 237 kts | 127° |
| 2026-04-22 21:17 | -33.83332 | -59.62785 | 7907 ft | 237 kts | 127° |
| 2026-04-22 21:17 | -33.84270 | -59.61150 | 7908 ft | 237 kts | 127° |
| 2026-04-22 21:17 | -33.84889 | -59.60069 | 7909 ft | 237 kts | 127° |
| 2026-04-22 21:18 | -33.86141 | -59.57888 | 7909 ft | 237 kts | 127° |
| 2026-04-22 21:18 | -33.86762 | -59.56805 | 7911 ft | 237 kts | 127° |
| 2026-04-22 21:18 | -33.88003 | -59.54639 | 7912 ft | 237 kts | 127° |
| 2026-04-22 21:18 | -33.88638 | -59.53534 | 7912 ft | 237 kts | 128° |
| 2026-04-22 21:19 | -33.89576 | -59.51902 | 7904 ft | 237 kts | 126° |
| 2026-04-22 21:19 | -33.90506 | -59.50279 | 7965 ft | 234 kts | 126° |
| 2026-04-22 21:19 | -33.91426 | -59.48669 | 7989 ft | 233 kts | 125° |
| 2026-04-22 21:19 | -33.92645 | -59.46536 | 7993 ft | 233 kts | 124° |
| 2026-04-22 21:20 | -33.93270 | -59.45444 | 7977 ft | 235 kts | 123° |
| 2026-04-22 21:20 | -33.94201 | -59.43812 | 7971 ft | 237 kts | 123° |
| 2026-04-22 21:20 | -33.95124 | -59.42194 | 7969 ft | 238 kts | 123° |
| 2026-04-22 21:20 | -33.96061 | -59.40551 | 7973 ft | 238 kts | 123° |
| 2026-04-22 21:21 | -33.96996 | -59.38910 | 7973 ft | 238 kts | 123° |
| 2026-04-22 21:21 | -33.97931 | -59.37269 | 7973 ft | 238 kts | 123° |
| 2026-04-22 21:21 | -33.98869 | -59.35624 | 7972 ft | 238 kts | 123° |
| 2026-04-22 21:21 | -33.99807 | -59.33977 | 7972 ft | 238 kts | 123° |
| 2026-04-22 21:22 | -34.00746 | -59.32329 | 7972 ft | 238 kts | 123° |
| 2026-04-22 21:22 | -34.01684 | -59.30681 | 7973 ft | 238 kts | 123° |
| 2026-04-22 21:22 | -34.02622 | -59.29032 | 7971 ft | 238 kts | 123° |
| 2026-04-22 21:22 | -34.03561 | -59.27381 | 7968 ft | 239 kts | 123° |
| 2026-04-22 21:23 | -34.04501 | -59.25727 | 7968 ft | 239 kts | 123° |
| 2026-04-22 21:23 | -34.05442 | -59.24070 | 7967 ft | 239 kts | 122° |
| 2026-04-22 21:23 | -34.06371 | -59.22435 | 7967 ft | 240 kts | 122° |
| 2026-04-22 21:23 | -34.07326 | -59.20752 | 7967 ft | 240 kts | 122° |
| 2026-04-22 21:24 | -34.08255 | -59.19113 | 7967 ft | 240 kts | 122° |
| 2026-04-22 21:24 | -34.09199 | -59.17450 | 7967 ft | 240 kts | 122° |
| 2026-04-22 21:24 | -34.10155 | -59.15762 | 7766 ft | 248 kts | 122° |
| 2026-04-22 21:24 | -34.11143 | -59.14015 | 7495 ft | 255 kts | 123° |
| 2026-04-22 21:25 | -34.12157 | -59.12223 | 7221 ft | 261 kts | 123° |
| 2026-04-22 21:25 | -34.13186 | -59.10405 | 6947 ft | 264 kts | 123° |
| 2026-04-22 21:25 | -34.14227 | -59.08565 | 6673 ft | 266 kts | 123° |
| 2026-04-22 21:25 | -34.15274 | -59.06714 | 6398 ft | 268 kts | 123° |
| 2026-04-22 21:26 | -34.16326 | -59.04854 | 6132 ft | 268 kts | 123° |
| 2026-04-22 21:26 | -34.17365 | -59.03018 | 6083 ft | 262 kts | 123° |
| 2026-04-22 21:26 | -34.18380 | -59.01221 | 6031 ft | 257 kts | 123° |
| 2026-04-22 21:26 | -34.19368 | -58.99471 | 5983 ft | 254 kts | 123° |
| 2026-04-22 21:27 | -34.20354 | -58.97724 | 5968 ft | 250 kts | 123° |
| 2026-04-22 21:27 | -34.21327 | -58.95998 | 5965 ft | 247 kts | 122° |
| 2026-04-22 21:27 | -34.22290 | -58.94289 | 5964 ft | 245 kts | 122° |
| 2026-04-22 21:27 | -34.23245 | -58.92591 | 5964 ft | 243 kts | 122° |
| 2026-04-22 21:28 | -34.24194 | -58.90905 | 5964 ft | 242 kts | 122° |
| 2026-04-22 21:28 | -34.25143 | -58.89218 | 5964 ft | 242 kts | 122° |
| 2026-04-22 21:28 | -34.26086 | -58.87540 | 5965 ft | 241 kts | 122° |
| 2026-04-22 21:28 | -34.27030 | -58.85861 | 5965 ft | 241 kts | 122° |
| 2026-04-22 21:29 | -34.27972 | -58.84185 | 5964 ft | 241 kts | 122° |
| 2026-04-22 21:29 | -34.28913 | -58.82509 | 5961 ft | 241 kts | 122° |
| 2026-04-22 21:29 | -34.29856 | -58.80830 | 5959 ft | 241 kts | 122° |
| 2026-04-22 21:29 | -34.30789 | -58.79169 | 5958 ft | 242 kts | 123° |
| 2026-04-22 21:30 | -34.31536 | -58.77362 | 5957 ft | 240 kts | 104° |
| 2026-04-22 21:30 | -34.31761 | -58.75372 | 5958 ft | 239 kts | 91° |
| 2026-04-22 21:30 | -34.31713 | -58.73354 | 5899 ft | 242 kts | 85° |
| 2026-04-22 21:30 | -34.31525 | -58.71295 | 5676 ft | 249 kts | 84° |
| 2026-04-22 21:31 | -34.31261 | -58.69204 | 5452 ft | 253 kts | 83° |
| 2026-04-22 21:31 | -34.30958 | -58.67099 | 5228 ft | 255 kts | 82° |
| 2026-04-22 21:31 | -34.30635 | -58.64982 | 5003 ft | 257 kts | 81° |
| 2026-04-22 21:31 | -34.30298 | -58.62844 | 4776 ft | 260 kts | 82° |
| 2026-04-22 21:32 | -34.29959 | -58.60714 | 4554 ft | 262 kts | 82° |
| 2026-04-22 21:32 | -34.29611 | -58.58547 | 4328 ft | 263 kts | 82° |
| 2026-04-22 21:32 | -34.29260 | -58.56364 | 4137 ft | 263 kts | 82° |
| 2026-04-22 21:32 | -34.28913 | -58.54210 | 4090 ft | 258 kts | 82° |
| 2026-04-22 21:33 | -34.28805 | -58.52080 | 4033 ft | 250 kts | 102° |
| 2026-04-22 21:33 | -34.29433 | -58.50203 | 4017 ft | 241 kts | 124° |
| 2026-04-22 21:33 | -34.30501 | -58.48671 | 3976 ft | 238 kts | 138° |
| 2026-04-22 21:33 | -34.31805 | -58.47407 | 3749 ft | 242 kts | 147° |
| 2026-04-22 21:34 | -34.33374 | -58.46693 | 3519 ft | 245 kts | 174° |
| 2026-04-22 21:34 | -34.35049 | -58.47026 | 3299 ft | 249 kts | 201° |
| 2026-04-22 21:34 | -34.36522 | -58.48158 | 3079 ft | 251 kts | 217° |
| 2026-04-22 21:34 | -34.37782 | -58.49590 | 2854 ft | 247 kts | 223° |
| 2026-04-22 21:35 | -34.38941 | -58.51090 | 2673 ft | 231 kts | 224° |
| 2026-04-22 21:35 | -34.39944 | -58.52425 | 2464 ft | 201 kts | 224° |
| 2026-04-22 21:35 | -34.40792 | -58.53543 | 2133 ft | 173 kts | 225° |
| 2026-04-22 21:35 | -34.41657 | -58.54648 | 1298 ft | 182 kts | 224° |
| 2026-04-22 21:36 | -34.42547 | -58.55711 | 690 ft | 177 kts | 223° |
| 2026-04-22 21:36 | -34.43418 | -58.56706 | 328 ft | 167 kts | 223° |
| 2026-04-22 21:36 | -34.44229 | -58.57646 | 181 ft | 154 kts | 224° |
| 2026-04-22 21:36 | -34.44966 | -58.58512 | 94 ft | 151 kts | 224° |
| 2026-04-22 21:37 | -34.45719 | -58.59394 | 73 ft | 154 kts | 223° |
| 2026-04-22 21:37 | -34.46558 | -58.60337 | 413 ft | 167 kts | 225° |
| 2026-04-22 21:37 | -34.47098 | -58.61586 | 966 ft | 176 kts | 262° |
| 2026-04-22 21:37 | -34.46883 | -58.63122 | 1084 ft | 208 kts | 292° |
| 2026-04-22 21:38 | -34.46333 | -58.64862 | 1080 ft | 230 kts | 282° |
| 2026-04-22 21:38 | -34.46188 | -58.66792 | 1393 ft | 232 kts | 267° |
| 2026-04-22 21:38 | -34.46349 | -58.68743 | 1697 ft | 234 kts | 260° |
| 2026-04-22 21:38 | -34.46633 | -58.70682 | 1996 ft | 230 kts | 258° |
| 2026-04-22 21:39 | -34.46884 | -58.72560 | 2290 ft | 222 kts | 264° |
| 2026-04-22 21:39 | -34.47062 | -58.74385 | 2588 ft | 214 kts | 256° |
| 2026-04-22 21:39 | -34.47296 | -58.76146 | 2880 ft | 211 kts | 265° |
| 2026-04-22 21:39 | -34.46915 | -58.77870 | 2979 ft | 224 kts | 298° |
| 2026-04-22 21:40 | -34.45748 | -58.79168 | 3004 ft | 236 kts | 332° |
| 2026-04-22 21:40 | -34.44137 | -58.79551 | 3002 ft | 239 kts | 6° |
| 2026-04-22 21:40 | -34.42595 | -58.78869 | 2997 ft | 237 kts | 38° |
| 2026-04-22 21:40 | -34.41572 | -58.77348 | 3001 ft | 233 kts | 66° |
| 2026-04-22 21:41 | -34.40973 | -58.75531 | 2996 ft | 233 kts | 74° |
| 2026-04-22 21:41 | -34.40216 | -58.73789 | 2993 ft | 238 kts | 53° |
| 2026-04-22 21:41 | -34.39059 | -58.72383 | 2993 ft | 240 kts | 45° |
| 2026-04-22 21:41 | -34.37794 | -58.71055 | 2990 ft | 241 kts | 43° |
| 2026-04-22 21:42 | -34.36529 | -58.69725 | 2989 ft | 241 kts | 44° |
| 2026-04-22 21:42 | -34.35291 | -58.68360 | 2989 ft | 241 kts | 46° |
| 2026-04-22 21:42 | -34.34087 | -58.66943 | 2989 ft | 240 kts | 48° |
| 2026-04-22 21:42 | -34.32938 | -58.65485 | 2990 ft | 240 kts | 50° |
| 2026-04-22 21:43 | -34.31877 | -58.63922 | 2991 ft | 239 kts | 57° |
| 2026-04-22 21:43 | -34.31002 | -58.62224 | 2993 ft | 237 kts | 65° |
| 2026-04-22 21:43 | -34.30315 | -58.60417 | 2995 ft | 236 kts | 71° |
| 2026-04-22 21:43 | -34.29778 | -58.58536 | 2999 ft | 236 kts | 76° |
| 2026-04-22 21:44 | -34.29348 | -58.56623 | 3008 ft | 236 kts | 79° |
| 2026-04-22 21:44 | -34.28985 | -58.54687 | 3009 ft | 236 kts | 81° |
| 2026-04-22 21:44 | -34.28911 | -58.52747 | 2923 ft | 236 kts | 101° |
| 2026-04-22 21:44 | -34.29408 | -58.50819 | 2546 ft | 245 kts | 118° |
| 2026-04-22 21:45 | -34.30373 | -58.49087 | 2213 ft | 251 kts | 131° |
| 2026-04-22 21:45 | -34.31631 | -58.47645 | 2146 ft | 247 kts | 141° |
| 2026-04-22 21:45 | -34.33158 | -58.46759 | 2064 ft | 246 kts | 168° |
| 2026-04-22 21:45 | -34.34836 | -58.46919 | 2020 ft | 243 kts | 198° |
| 2026-04-22 21:46 | -34.36268 | -58.47932 | 2011 ft | 235 kts | 218° |
| 2026-04-22 21:46 | -34.37459 | -58.49266 | 1948 ft | 233 kts | 224° |
| 2026-04-22 21:46 | -34.38574 | -58.50689 | 1689 ft | 235 kts | 225° |
| 2026-04-22 21:46 | -34.39628 | -58.52064 | 1548 ft | 207 kts | 225° |
| 2026-04-22 21:47 | -34.40466 | -58.53145 | 1653 ft | 156 kts | 224° |
| 2026-04-22 21:47 | -34.41229 | -58.54092 | 1364 ft | 156 kts | 223° |
| 2026-04-22 21:47 | -34.41978 | -58.54993 | 1221 ft | 151 kts | 222° |
| 2026-04-22 21:47 | -34.42740 | -58.55888 | 795 ft | 160 kts | 223° |
| 2026-04-22 21:48 | -34.43559 | -58.56827 | 414 ft | 160 kts | 224° |
| 2026-04-22 21:48 | -34.44342 | -58.57763 | 148 ft | 155 kts | 224° |
| 2026-04-22 21:48 | -34.45092 | -58.58649 | 23 ft | 141 kts | 224° |
| 2026-04-22 21:48 | -34.45647 | -58.59318 | 15 ft | 82 kts | 223° |
| 2026-04-22 21:49 | -34.45866 | -58.59566 | 15 ft | 21 kts | 224° |
| 2026-04-22 21:49 | -34.45951 | -58.59660 | 15 ft | 10 kts | 218° |
| 2026-04-22 21:49 | -34.45992 | -58.59674 | 15 ft | 2 kts | 173° |
| 2026-04-22 21:49 | -34.46023 | -58.59660 | 15 ft | 17 kts | 142° |
| 2026-04-22 21:50 | -34.46029 | -58.59598 | 15 ft | 9 kts | 66° |
| 2026-04-22 21:50 | -34.46000 | -58.59527 | 15 ft | 10 kts | 60° |
| 2026-04-22 21:50 | -34.45955 | -58.59423 | 15 ft | 23 kts | 62° |
| 2026-04-22 21:50 | -34.45903 | -58.59300 | 15 ft | 16 kts | 62° |
| 2026-04-22 21:51 | -34.45849 | -58.59181 | 15 ft | 16 kts | 61° |
| 2026-04-22 21:51 | -34.45807 | -58.59085 | 15 ft | 12 kts | 61° |
| 2026-04-22 21:51 | -34.45770 | -58.58993 | 15 ft | 12 kts | 62° |
| 2026-04-22 21:52 | -34.45687 | -58.58803 | 15 ft | 13 kts | 60° |
| 2026-04-22 21:52 | -34.45646 | -58.58705 | 15 ft | 13 kts | 63° |
| 2026-04-22 21:52 | -34.45602 | -58.58604 | 15 ft | 14 kts | 65° |
| 2026-04-22 21:52 | -34.45563 | -58.58509 | 15 ft | 10 kts | 62° |
| 2026-04-22 21:53 | -34.45554 | -58.58442 | 15 ft | 6 kts | 83° |
| 2026-04-22 21:53 | -34.45553 | -58.58440 | 15 ft | 0 kts | 76° |